Horizon Enterprise — KRGB — position and weather

sailwx.info

Track history (hours):
 
Tides and Currents Weather Stations Pressure Air Temp Water Temp Dewpoint Dewpoint Depression Visibility Wind Speed Wind Dir Waves Ship Positions

Horizon Enterprise

Owner: Marine Transport Management, Inc, Jacksonville, FL. More information available from US FCC via Universal Licensing System and Coast Guard Vessel Documentation Center.

Last reported at 2018-Apr-05 17:23 UTC. Time now 2018-Apr-22 14:03 UTC.
Position N 31°45' E 121°06'.
Warning: this ship's position is 16 days out of date.

Type: Cargo ship. MMSI: 366758000.

Date/timePositionNaut miles runAvg speedWind from/ knotsBaromVisibWave heightAir tempDewpointWater temp
2018-Apr-05 17:23N 31°45' E 121°06'411.2
2018-Apr-05 17:00N 31°42' E 121°09'510.6
2018-Apr-05 16:30N 31°39' E 121°14'612.5
2018-Apr-05 16:00N 31°34' E 121°19'612.2
2018-Apr-05 15:30N 31°30' E 121°25'610.5
2018-Apr-05 14:58N 31°26' E 121°30'3 5.5
2018-Apr-05 14:30N 31°25' E 121°32'3 5.6
2018-Apr-05 14:00N 31°23' E 121°35'3 4.7
2018-Apr-05 13:25N 31°22' E 121°38'7 5.4
2018-Apr-05 12:09N 31°19' E 121°45'1 7.4
2018-Apr-05 11:59N 31°18' E 121°46'3 6.7
2018-Apr-05 11:30N 31°17' E 121°49'4 7.5
2018-Apr-05 10:59N 31°16' E 121°54'3 7.0
2018-Apr-05 10:30N 31°15' E 121°58'611.6
2018-Apr-05 10:00N 31°14' E 122°04'4 7.1
2018-Apr-05 09:29N 31°12' E 122°08'3 6.0
2018-Apr-05 09:00N 31°11' E 122°11'5 8.5
2018-Apr-05 08:27N 31°08' E 122°15'4 9.7
2018-Apr-05 08:00N 31°06' E 122°20'4 7.0
2018-Apr-05 07:24N 31°06' E 122°25'  
2018-Mar-31 06:02N 30°59' E 123°03'1 6.4
2018-Mar-31 05:51N 30°58' E 123°03'3 7.5
2018-Mar-31 05:30N 30°56' E 123°04'8 5.8
2018-Mar-31 04:08N 31°03' E 123°08'1 8.0
2018-Mar-31 03:59N 31°04' E 123°08'4 8.4
2018-Mar-31 03:28N 31°05' E 123°03'611.2
2018-Mar-31 02:56N 31°06' E 122°56'3 5.3
2018-Mar-31 02:22N 31°06' E 122°52'813.3
2018-Mar-31 01:45N 31°06' E 122°43'2 6.3
2018-Mar-31 01:29N 31°06' E 122°41'610.1
2018-Mar-31 00:54N 31°05' E 122°34'615.9
2018-Mar-31 00:30N 31°05' E 122°27'0 0.1
2018-Mar-30 20:35N 31°05' E 122°27'0 0.1
2018-Mar-30 20:29N 31°05' E 122°27'0 0.0
2018-Mar-30 18:53N 31°05' E 122°27'0 0.0
2018-Mar-30 18:24N 31°05' E 122°27'0 0.0
2018-Mar-30 16:42N 31°05' E 122°27'0 0.0
2018-Mar-30 05:14N 31°05' E 122°27'0 0.0
2018-Mar-30 04:59N 31°05' E 122°27'0 0.0
2018-Mar-29 17:29N 31°05' E 122°27'0 0.0
2018-Mar-29 16:59N 31°05' E 122°27'0 0.1
2018-Mar-29 15:17N 31°05' E 122°27'0 0.0
2018-Mar-29 07:32N 31°05' E 122°27'0 0.1
2018-Mar-29 07:26N 31°05' E 122°27'0 0.0
2018-Mar-29 06:59N 31°05' E 122°27'0 0.0
2018-Mar-29 05:08N 31°05' E 122°27'0 0.0
2018-Mar-29 04:50N 31°05' E 122°27'0 0.0
2018-Mar-28 17:14N 31°05' E 122°27'0 0.0
2018-Mar-28 15:47N 31°05' E 122°27'0 0.2
2018-Mar-28 15:29N 31°05' E 122°27'0 0.0
2018-Mar-28 14:59N 31°05' E 122°27'0 0.0
2018-Mar-28 14:26N 31°05' E 122°27'0 0.0
2018-Mar-28 11:38N 31°05' E 122°27'0 0.0
2018-Mar-28 11:29N 31°05' E 122°27'0 0.0
2018-Mar-28 09:32N 31°05' E 122°27'0 0.1
2018-Mar-28 09:29N 31°05' E 122°27'0 0.1
2018-Mar-28 06:35N 31°05' E 122°27'0 0.0
2018-Mar-28 06:29N 31°05' E 122°27'0 0.1
2018-Mar-28 05:59N 31°05' E 122°27'0 0.0
2018-Mar-28 05:29N 31°05' E 122°27'0 0.0
2018-Mar-28 03:08N 31°05' E 122°27'0 0.0
2018-Mar-27 14:03N 31°05' E 122°27'0 0.6
2018-Mar-27 14:00N 31°05' E 122°27'0 0.6
2018-Mar-27 13:28N 31°05' E 122°27'4 7.5
2018-Mar-27 12:56N 31°06' E 122°22'613.0
2018-Mar-27 12:29N 31°08' E 122°16'1213.3
2018-Mar-27 11:33N 31°14' E 122°04'514.7
2018-Mar-27 11:11N 31°15' E 121°58'314.8
2018-Mar-27 11:00N 31°16' E 121°54'10 1.1
2018-Mar-27 01:53N 31°19' E 121°44'4 9.3
2018-Mar-27 01:29N 31°18' E 121°48'611.8
2018-Mar-27 01:00N 31°16' E 121°54'611.2
2018-Mar-27 00:27N 31°15' E 122°01'510.6
2018-Mar-27 00:00N 31°13' E 122°07'4 8.7
2018-Mar-26 23:30N 31°11' E 122°11'612.0
2018-Mar-26 23:00N 31°07' E 122°17'611.8
2018-Mar-26 22:30N 31°06' E 122°23'  
Track history (hours):
 
Tides and Currents Weather Stations Pressure Air Temp Water Temp Dewpoint Dewpoint Depression Visibility Wind Speed Wind Dir Waves Ship Positions

Horizon Enterprise

Owner: Marine Transport Management, Inc, Jacksonville, FL. More information available from US FCC via Universal Licensing System and Coast Guard Vessel Documentation Center.

Last reported at 2018-Apr-05 17:23 UTC. Time now 2018-Apr-22 14:03 UTC.
Position N 31°45' E 121°06'.
Warning: this ship's position is 16 days out of date.

Type: Cargo ship. MMSI: 366758000.

Date/timePositionNaut miles runAvg speedWind from/ knotsBaromVisibWave heightAir tempDewpointWater temp
2018-Apr-05 17:23N 31°45' E 121°06'411.2
2018-Apr-05 17:00N 31°42' E 121°09'510.6
2018-Apr-05 16:30N 31°39' E 121°14'612.5
2018-Apr-05 16:00N 31°34' E 121°19'612.2
2018-Apr-05 15:30N 31°30' E 121°25'610.5
2018-Apr-05 14:58N 31°26' E 121°30'3 5.5
2018-Apr-05 14:30N 31°25' E 121°32'3 5.6
2018-Apr-05 14:00N 31°23' E 121°35'3 4.7
2018-Apr-05 13:25N 31°22' E 121°38'7 5.4
2018-Apr-05 12:09N 31°19' E 121°45'1 7.4
2018-Apr-05 11:59N 31°18' E 121°46'3 6.7
2018-Apr-05 11:30N 31°17' E 121°49'4 7.5
2018-Apr-05 10:59N 31°16' E 121°54'3 7.0
2018-Apr-05 10:30N 31°15' E 121°58'611.6
2018-Apr-05 10:00N 31°14' E 122°04'4 7.1
2018-Apr-05 09:29N 31°12' E 122°08'3 6.0
2018-Apr-05 09:00N 31°11' E 122°11'5 8.5
2018-Apr-05 08:27N 31°08' E 122°15'4 9.7
2018-Apr-05 08:00N 31°06' E 122°20'4 7.0
2018-Apr-05 07:24N 31°06' E 122°25'  
2018-Mar-31 06:02N 30°59' E 123°03'1 6.4
2018-Mar-31 05:51N 30°58' E 123°03'3 7.5
2018-Mar-31 05:30N 30°56' E 123°04'8 5.8
2018-Mar-31 04:08N 31°03' E 123°08'1 8.0
2018-Mar-31 03:59N 31°04' E 123°08'4 8.4
2018-Mar-31 03:28N 31°05' E 123°03'611.2
2018-Mar-31 02:56N 31°06' E 122°56'3 5.3
2018-Mar-31 02:22N 31°06' E 122°52'813.3
2018-Mar-31 01:45N 31°06' E 122°43'2 6.3
2018-Mar-31 01:29N 31°06' E 122°41'610.1
2018-Mar-31 00:54N 31°05' E 122°34'615.9
2018-Mar-31 00:30N 31°05' E 122°27'0 0.1
2018-Mar-30 20:35N 31°05' E 122°27'0 0.1
2018-Mar-30 20:29N 31°05' E 122°27'0 0.0
2018-Mar-30 18:53N 31°05' E 122°27'0 0.0
2018-Mar-30 18:24N 31°05' E 122°27'0 0.0
2018-Mar-30 16:42N 31°05' E 122°27'0 0.0
2018-Mar-30 05:14N 31°05' E 122°27'0 0.0
2018-Mar-30 04:59N 31°05' E 122°27'0 0.0
2018-Mar-29 17:29N 31°05' E 122°27'0 0.0
2018-Mar-29 16:59N 31°05' E 122°27'0 0.1
2018-Mar-29 15:17N 31°05' E 122°27'0 0.0
2018-Mar-29 07:32N 31°05' E 122°27'0 0.1
2018-Mar-29 07:26N 31°05' E 122°27'0 0.0
2018-Mar-29 06:59N 31°05' E 122°27'0 0.0
2018-Mar-29 05:08N 31°05' E 122°27'0 0.0
2018-Mar-29 04:50N 31°05' E 122°27'0 0.0
2018-Mar-28 17:14N 31°05' E 122°27'0 0.0
2018-Mar-28 15:47N 31°05' E 122°27'0 0.2
2018-Mar-28 15:29N 31°05' E 122°27'0 0.0
2018-Mar-28 14:59N 31°05' E 122°27'0 0.0
2018-Mar-28 14:26N 31°05' E 122°27'0 0.0
2018-Mar-28 11:38N 31°05' E 122°27'0 0.0
2018-Mar-28 11:29N 31°05' E 122°27'0 0.0
2018-Mar-28 09:32N 31°05' E 122°27'0 0.1
2018-Mar-28 09:29N 31°05' E 122°27'0 0.1
2018-Mar-28 06:35N 31°05' E 122°27'0 0.0
2018-Mar-28 06:29N 31°05' E 122°27'0 0.1
2018-Mar-28 05:59N 31°05' E 122°27'0 0.0
2018-Mar-28 05:29N 31°05' E 122°27'0 0.0
2018-Mar-28 03:08N 31°05' E 122°27'0 0.0
2018-Mar-27 14:03N 31°05' E 122°27'0 0.6
2018-Mar-27 14:00N 31°05' E 122°27'0 0.6
2018-Mar-27 13:28N 31°05' E 122°27'4 7.5
2018-Mar-27 12:56N 31°06' E 122°22'613.0
2018-Mar-27 12:29N 31°08' E 122°16'1213.3
2018-Mar-27 11:33N 31°14' E 122°04'514.7
2018-Mar-27 11:11N 31°15' E 121°58'314.8
2018-Mar-27 11:00N 31°16' E 121°54'10 1.1
2018-Mar-27 01:53N 31°19' E 121°44'4 9.3
2018-Mar-27 01:29N 31°18' E 121°48'611.8
2018-Mar-27 01:00N 31°16' E 121°54'611.2
2018-Mar-27 00:27N 31°15' E 122°01'510.6
2018-Mar-27 00:00N 31°13' E 122°07'4 8.7
2018-Mar-26 23:30N 31°11' E 122°11'612.0
2018-Mar-26 23:00N 31°07' E 122°17'611.8
2018-Mar-26 22:30N 31°06' E 122°23'  

Dump ship's entire track history